HBBA

Bujumbura International Airport

Bujumbura, Burundi
METAR HBBA 251200Z 18023KT 9000 SCT030TCU31/17 Q1011 NOSIG
Observed Flight Rules
Sep-25 @ 12:00 UTC (7 hours ago)
Wind Visibility
180° at 23 knots 8,996 meters
Temperatures Readings
Current 31°C / 88°F
Dewpoint 17°C / 63°F
Humidity 43%
Altimeter 29.85" Hg
Pressure 1011 hPa
Elevation 783
METAR HBBA 251200Z 18023KT 9000 SCT030TCU31/17 Q1011 NOSIG
Observed Flight Rules
Sep-25 @ 12:00 UTC
(7 hours ago)
Wind Visibility
180° at 23 knots 8,996 meters
Temperature Dewpoint
31°C / 88°F 17°C / 63°F
Humidity Altimeter Pressure
43% 29.85" Hg 1011 hPa